sensor_id;sensor_type;location;lat;lon;timestamp;temperature;humidity
24017;DHT22;12222;50.090;19.702;2022-10-16T00:02:16;11.90;99.90
24017;DHT22;12222;50.090;19.702;2022-10-16T00:07:18;11.90;99.90
24017;DHT22;12222;50.090;19.702;2022-10-16T00:12:20;12.10;99.90
24017;DHT22;12222;50.090;19.702;2022-10-16T00:17:22;12.30;99.90
24017;DHT22;12222;50.090;19.702;2022-10-16T00:22:24;12.40;99.90
24017;DHT22;12222;50.090;19.702;2022-10-16T00:27:26;12.10;99.90
24017;DHT22;12222;50.090;19.702;2022-10-16T00:32:28;12.30;99.90
24017;DHT22;12222;50.090;19.702;2022-10-16T00:37:32;12.40;99.90
24017;DHT22;12222;50.090;19.702;2022-10-16T00:42:33;12.40;99.90
24017;DHT22;12222;50.090;19.702;2022-10-16T00:47:43;12.40;99.90
24017;DHT22;12222;50.090;19.702;2022-10-16T00:52:48;12.40;99.90
24017;DHT22;12222;50.090;19.702;2022-10-16T00:57:51;12.40;99.90
24017;DHT22;12222;50.090;19.702;2022-10-16T01:02:58;12.40;99.90
24017;DHT22;12222;50.090;19.702;2022-10-16T01:08:13;12.40;99.90
24017;DHT22;12222;50.090;19.702;2022-10-16T01:13:24;12.30;99.90
24017;DHT22;12222;50.090;19.702;2022-10-16T01:18:46;12.10;99.90
24017;DHT22;12222;50.090;19.702;2022-10-16T01:29:28;12.20;99.90
24017;DHT22;12222;50.090;19.702;2022-10-16T01:34:45;12.30;99.90
24017;DHT22;12222;50.090;19.702;2022-10-16T01:39:48;12.30;99.90
24017;DHT22;12222;50.090;19.702;2022-10-16T01:44:53;12.40;99.90
24017;DHT22;12222;50.090;19.702;2022-10-16T01:49:55;12.40;99.90
24017;DHT22;12222;50.090;19.702;2022-10-16T01:54:58;12.30;99.90
24017;DHT22;12222;50.090;19.702;2022-10-16T02:00:07;12.20;99.90
24017;DHT22;12222;50.090;19.702;2022-10-16T02:05:30;12.00;99.90
24017;DHT22;12222;50.090;19.702;2022-10-16T02:10:34;11.90;99.90
24017;DHT22;12222;50.090;19.702;2022-10-16T02:15:37;11.80;99.90
24017;DHT22;12222;50.090;19.702;2022-10-16T02:25:52;11.70;99.90
24017;DHT22;12222;50.090;19.702;2022-10-16T02:31:02;11.70;99.90
24017;DHT22;12222;50.090;19.702;2022-10-16T02:36:05;11.50;99.90
24017;DHT22;12222;50.090;19.702;2022-10-16T02:41:08;11.30;99.90
24017;DHT22;12222;50.090;19.702;2022-10-16T02:46:10;11.50;99.90
24017;DHT22;12222;50.090;19.702;2022-10-16T02:51:12;11.50;99.90
24017;DHT22;12222;50.090;19.702;2022-10-16T02:56:14;11.40;99.90
24017;DHT22;12222;50.090;19.702;2022-10-16T03:01:15;11.40;99.90
24017;DHT22;12222;50.090;19.702;2022-10-16T03:06:18;11.20;99.90
24017;DHT22;12222;50.090;19.702;2022-10-16T03:11:20;11.10;99.90
24017;DHT22;12222;50.090;19.702;2022-10-16T03:16:22;11.00;99.90
24017;DHT22;12222;50.090;19.702;2022-10-16T03:21:24;10.80;99.90
24017;DHT22;12222;50.090;19.702;2022-10-16T03:26:26;10.50;99.90
24017;DHT22;12222;50.090;19.702;2022-10-16T03:31:28;10.20;99.90
24017;DHT22;12222;50.090;19.702;2022-10-16T03:36:30;9.90;99.90
24017;DHT22;12222;50.090;19.702;2022-10-16T03:41:32;9.80;99.90
24017;DHT22;12222;50.090;19.702;2022-10-16T03:46:34;10.10;99.90
24017;DHT22;12222;50.090;19.702;2022-10-16T03:51:36;10.10;99.90
24017;DHT22;12222;50.090;19.702;2022-10-16T03:56:38;10.10;99.90
24017;DHT22;12222;50.090;19.702;2022-10-16T04:01:40;10.10;99.90
24017;DHT22;12222;50.090;19.702;2022-10-16T04:06:42;9.90;99.90
24017;DHT22;12222;50.090;19.702;2022-10-16T04:11:44;9.90;99.90
24017;DHT22;12222;50.090;19.702;2022-10-16T04:16:46;9.80;99.90
24017;DHT22;12222;50.090;19.702;2022-10-16T04:21:48;9.70;99.90
24017;DHT22;12222;50.090;19.702;2022-10-16T04:26:49;9.50;99.90
24017;DHT22;12222;50.090;19.702;2022-10-16T04:31:51;9.20;99.90
24017;DHT22;12222;50.090;19.702;2022-10-16T04:36:53;9.00;99.90
24017;DHT22;12222;50.090;19.702;2022-10-16T04:41:55;9.20;99.90
24017;DHT22;12222;50.090;19.702;2022-10-16T04:46:57;9.30;99.90
24017;DHT22;12222;50.090;19.702;2022-10-16T04:51:58;9.20;99.90
24017;DHT22;12222;50.090;19.702;2022-10-16T04:57:00;9.20;99.90
24017;DHT22;12222;50.090;19.702;2022-10-16T05:02:02;9.20;99.90
24017;DHT22;12222;50.090;19.702;2022-10-16T05:07:04;9.20;99.90
24017;DHT22;12222;50.090;19.702;2022-10-16T05:12:06;9.10;99.90
24017;DHT22;12222;50.090;19.702;2022-10-16T05:17:08;9.10;99.90
24017;DHT22;12222;50.090;19.702;2022-10-16T05:22:10;9.20;99.90
24017;DHT22;12222;50.090;19.702;2022-10-16T05:27:12;9.30;99.90
24017;DHT22;12222;50.090;19.702;2022-10-16T05:32:20;9.20;99.90
24017;DHT22;12222;50.090;19.702;2022-10-16T05:37:22;9.10;99.90
24017;DHT22;12222;50.090;19.702;2022-10-16T05:42:24;9.40;99.90
24017;DHT22;12222;50.090;19.702;2022-10-16T05:47:26;9.60;99.90
24017;DHT22;12222;50.090;19.702;2022-10-16T05:52:29;9.70;99.90
24017;DHT22;12222;50.090;19.702;2022-10-16T05:57:31;9.80;99.90
24017;DHT22;12222;50.090;19.702;2022-10-16T06:02:33;9.90;99.90
24017;DHT22;12222;50.090;19.702;2022-10-16T06:07:35;10.00;99.90
24017;DHT22;12222;50.090;19.702;2022-10-16T06:12:37;10.10;99.90
24017;DHT22;12222;50.090;19.702;2022-10-16T06:17:39;10.20;99.90
24017;DHT22;12222;50.090;19.702;2022-10-16T06:22:41;10.30;99.90
24017;DHT22;12222;50.090;19.702;2022-10-16T06:27:43;10.50;99.90
24017;DHT22;12222;50.090;19.702;2022-10-16T06:32:45;10.40;99.90
24017;DHT22;12222;50.090;19.702;2022-10-16T06:37:46;10.70;99.90
24017;DHT22;12222;50.090;19.702;2022-10-16T06:42:48;10.90;99.90
24017;DHT22;12222;50.090;19.702;2022-10-16T06:47:50;11.00;99.90
24017;DHT22;12222;50.090;19.702;2022-10-16T06:52:52;11.20;99.90
24017;DHT22;12222;50.090;19.702;2022-10-16T06:57:54;11.40;99.90
24017;DHT22;12222;50.090;19.702;2022-10-16T07:02:55;11.50;99.90
24017;DHT22;12222;50.090;19.702;2022-10-16T07:07:57;11.60;99.90
24017;DHT22;12222;50.090;19.702;2022-10-16T07:12:59;11.70;99.90
24017;DHT22;12222;50.090;19.702;2022-10-16T07:18:01;12.00;99.90
24017;DHT22;12222;50.090;19.702;2022-10-16T07:23:03;12.30;99.90
24017;DHT22;12222;50.090;19.702;2022-10-16T07:28:05;12.90;99.90
24017;DHT22;12222;50.090;19.702;2022-10-16T07:33:07;13.30;99.90
24017;DHT22;12222;50.090;19.702;2022-10-16T07:38:08;13.30;99.90
24017;DHT22;12222;50.090;19.702;2022-10-16T07:43:11;13.30;99.90
24017;DHT22;12222;50.090;19.702;2022-10-16T07:48:13;13.70;99.90
24017;DHT22;12222;50.090;19.702;2022-10-16T07:53:15;14.20;99.90
24017;DHT22;12222;50.090;19.702;2022-10-16T07:58:17;14.60;99.90
24017;DHT22;12222;50.090;19.702;2022-10-16T08:03:18;15.10;99.90
24017;DHT22;12222;50.090;19.702;2022-10-16T08:08:20;15.50;99.90
24017;DHT22;12222;50.090;19.702;2022-10-16T08:13:22;15.80;99.90
24017;DHT22;12222;50.090;19.702;2022-10-16T08:18:24;15.90;99.90
24017;DHT22;12222;50.090;19.702;2022-10-16T08:23:27;16.30;99.90
24017;DHT22;12222;50.090;19.702;2022-10-16T08:28:29;16.50;99.90
24017;DHT22;12222;50.090;19.702;2022-10-16T08:33:31;16.80;99.90
24017;DHT22;12222;50.090;19.702;2022-10-16T08:38:33;17.00;99.90
24017;DHT22;12222;50.090;19.702;2022-10-16T08:49:14;17.90;99.90
24017;DHT22;12222;50.090;19.702;2022-10-16T08:54:29;18.40;99.90
24017;DHT22;12222;50.090;19.702;2022-10-16T08:59:32;18.60;99.90
24017;DHT22;12222;50.090;19.702;2022-10-16T09:20:56;18.50;99.90
24017;DHT22;12222;50.090;19.702;2022-10-16T09:25:59;18.60;99.90
24017;DHT22;12222;50.090;19.702;2022-10-16T09:31:01;18.50;99.90
24017;DHT22;12222;50.090;19.702;2022-10-16T09:36:05;18.70;99.90
24017;DHT22;12222;50.090;19.702;2022-10-16T09:41:19;18.60;99.90
24017;DHT22;12222;50.090;19.702;2022-10-16T09:51:32;19.10;99.90
24017;DHT22;12222;50.090;19.702;2022-10-16T09:56:36;19.60;99.90
24017;DHT22;12222;50.090;19.702;2022-10-16T10:01:41;19.50;99.90
24017;DHT22;12222;50.090;19.702;2022-10-16T10:06:49;19.40;99.90
24017;DHT22;12222;50.090;19.702;2022-10-16T10:12:05;19.30;99.90
24017;DHT22;12222;50.090;19.702;2022-10-16T10:17:17;19.20;99.90
24017;DHT22;12222;50.090;19.702;2022-10-16T10:27:48;19.90;99.90
24017;DHT22;12222;50.090;19.702;2022-10-16T10:38:38;20.40;99.90
24017;DHT22;12222;50.090;19.702;2022-10-16T10:49:16;20.90;99.90
24017;DHT22;12222;50.090;19.702;2022-10-16T10:54:35;21.00;99.90
24017;DHT22;12222;50.090;19.702;2022-10-16T11:10:16;20.60;99.90
24017;DHT22;12222;50.090;19.702;2022-10-16T11:15:33;20.50;99.90
24017;DHT22;12222;50.090;19.702;2022-10-16T11:20:49;20.40;99.90
24017;DHT22;12222;50.090;19.702;2022-10-16T11:25:54;20.10;99.90
24017;DHT22;12222;50.090;19.702;2022-10-16T11:31:22;20.10;99.90
24017;DHT22;12222;50.090;19.702;2022-10-16T11:46:41;20.70;99.90
24017;DHT22;12222;50.090;19.702;2022-10-16T11:57:27;20.20;99.90
24017;DHT22;12222;50.090;19.702;2022-10-16T12:02:37;20.10;99.90
24017;DHT22;12222;50.090;19.702;2022-10-16T12:07:56;20.00;99.90
24017;DHT22;12222;50.090;19.702;2022-10-16T12:18:24;19.90;99.90
24017;DHT22;12222;50.090;19.702;2022-10-16T12:23:26;20.00;99.90
24017;DHT22;12222;50.090;19.702;2022-10-16T12:28:32;20.50;99.90
24017;DHT22;12222;50.090;19.702;2022-10-16T12:33:41;21.00;99.90
24017;DHT22;12222;50.090;19.702;2022-10-16T12:38:48;21.00;99.90
24017;DHT22;12222;50.090;19.702;2022-10-16T12:43:51;21.30;99.90
24017;DHT22;12222;50.090;19.702;2022-10-16T12:49:06;21.60;99.50
24017;DHT22;12222;50.090;19.702;2022-10-16T12:54:21;21.70;99.80
24017;DHT22;12222;50.090;19.702;2022-10-16T13:10:39;20.60;99.90
24017;DHT22;12222;50.090;19.702;2022-10-16T13:15:52;20.30;99.90
24017;DHT22;12222;50.090;19.702;2022-10-16T13:21:19;20.00;99.90
24017;DHT22;12222;50.090;19.702;2022-10-16T13:26:40;19.80;99.90
24017;DHT22;12222;50.090;19.702;2022-10-16T13:31:44;19.70;99.90
24017;DHT22;12222;50.090;19.702;2022-10-16T13:36:49;19.50;99.90
24017;DHT22;12222;50.090;19.702;2022-10-16T13:42:24;19.40;99.90
24017;DHT22;12222;50.090;19.702;2022-10-16T13:47:29;19.30;99.90
24017;DHT22;12222;50.090;19.702;2022-10-16T13:52:32;19.30;99.90
24017;DHT22;12222;50.090;19.702;2022-10-16T13:57:34;19.20;99.90
24017;DHT22;12222;50.090;19.702;2022-10-16T14:02:38;19.20;99.90
24017;DHT22;12222;50.090;19.702;2022-10-16T14:07:42;19.10;99.90
24017;DHT22;12222;50.090;19.702;2022-10-16T14:12:44;19.10;99.90
24017;DHT22;12222;50.090;19.702;2022-10-16T14:17:50;19.00;99.90
24017;DHT22;12222;50.090;19.702;2022-10-16T14:23:40;18.90;99.90
24017;DHT22;12222;50.090;19.702;2022-10-16T14:28:42;18.80;99.90
24017;DHT22;12222;50.090;19.702;2022-10-16T14:33:44;18.70;99.90
24017;DHT22;12222;50.090;19.702;2022-10-16T14:44:03;18.80;99.90
24017;DHT22;12222;50.090;19.702;2022-10-16T14:54:11;18.80;99.90
24017;DHT22;12222;50.090;19.702;2022-10-16T14:59:39;18.70;99.90
24017;DHT22;12222;50.090;19.702;2022-10-16T15:04:42;18.60;99.90
24017;DHT22;12222;50.090;19.702;2022-10-16T15:09:43;18.40;99.90
24017;DHT22;12222;50.090;19.702;2022-10-16T15:14:50;18.30;99.90
24017;DHT22;12222;50.090;19.702;2022-10-16T15:19:52;18.20;99.90
24017;DHT22;12222;50.090;19.702;2022-10-16T15:24:54;18.00;99.90
24017;DHT22;12222;50.090;19.702;2022-10-16T15:29:56;17.90;99.90
24017;DHT22;12222;50.090;19.702;2022-10-16T15:34:58;17.40;99.90
24017;DHT22;12222;50.090;19.702;2022-10-16T15:40:00;17.20;99.90
24017;DHT22;12222;50.090;19.702;2022-10-16T15:45:03;17.20;99.90
24017;DHT22;12222;50.090;19.702;2022-10-16T15:50:06;16.90;99.90
24017;DHT22;12222;50.090;19.702;2022-10-16T15:55:09;16.80;99.90
24017;DHT22;12222;50.090;19.702;2022-10-16T16:00:15;16.20;99.90
24017;DHT22;12222;50.090;19.702;2022-10-16T16:05:17;15.90;99.90
24017;DHT22;12222;50.090;19.702;2022-10-16T16:10:19;15.60;99.90
24017;DHT22;12222;50.090;19.702;2022-10-16T16:15:22;15.60;99.90
24017;DHT22;12222;50.090;19.702;2022-10-16T16:20:24;15.50;99.90
24017;DHT22;12222;50.090;19.702;2022-10-16T16:25:26;14.90;99.90
24017;DHT22;12222;50.090;19.702;2022-10-16T16:30:28;14.40;99.90
24017;DHT22;12222;50.090;19.702;2022-10-16T16:35:30;14.60;99.90
24017;DHT22;12222;50.090;19.702;2022-10-16T16:40:37;14.40;99.90
24017;DHT22;12222;50.090;19.702;2022-10-16T16:46:01;14.00;99.90
24017;DHT22;12222;50.090;19.702;2022-10-16T16:51:12;14.10;99.90
24017;DHT22;12222;50.090;19.702;2022-10-16T16:56:22;14.00;99.90
24017;DHT22;12222;50.090;19.702;2022-10-16T17:01:27;13.80;99.90
24017;DHT22;12222;50.090;19.702;2022-10-16T17:06:30;13.80;99.90
24017;DHT22;12222;50.090;19.702;2022-10-16T17:11:59;13.80;99.90
24017;DHT22;12222;50.090;19.702;2022-10-16T17:17:10;13.70;99.90
24017;DHT22;12222;50.090;19.702;2022-10-16T17:22:12;13.50;99.90
24017;DHT22;12222;50.090;19.702;2022-10-16T17:27:15;13.50;99.90
24017;DHT22;12222;50.090;19.702;2022-10-16T17:32:19;13.40;99.90
24017;DHT22;12222;50.090;19.702;2022-10-16T17:37:23;13.20;99.90
24017;DHT22;12222;50.090;19.702;2022-10-16T17:42:26;12.90;99.90
24017;DHT22;12222;50.090;19.702;2022-10-16T17:47:42;12.70;99.90
24017;DHT22;12222;50.090;19.702;2022-10-16T17:53:15;12.50;99.90
24017;DHT22;12222;50.090;19.702;2022-10-16T17:58:58;12.50;99.90
24017;DHT22;12222;50.090;19.702;2022-10-16T18:04:10;12.50;99.90
24017;DHT22;12222;50.090;19.702;2022-10-16T18:09:15;12.70;99.90
24017;DHT22;12222;50.090;19.702;2022-10-16T18:14:27;12.80;99.90
24017;DHT22;12222;50.090;19.702;2022-10-16T18:19:34;12.80;99.90
24017;DHT22;12222;50.090;19.702;2022-10-16T18:24:53;12.80;99.90
24017;DHT22;12222;50.090;19.702;2022-10-16T18:29:59;12.90;99.90
24017;DHT22;12222;50.090;19.702;2022-10-16T18:35:28;12.90;99.90
24017;DHT22;12222;50.090;19.702;2022-10-16T18:40:31;12.90;99.90
24017;DHT22;12222;50.090;19.702;2022-10-16T18:45:53;12.90;99.90
24017;DHT22;12222;50.090;19.702;2022-10-16T18:56:21;13.40;99.90
24017;DHT22;12222;50.090;19.702;2022-10-16T19:01:32;13.50;99.90
24017;DHT22;12222;50.090;19.702;2022-10-16T19:06:54;13.30;99.90
24017;DHT22;12222;50.090;19.702;2022-10-16T19:11:57;13.20;99.90
24017;DHT22;12222;50.090;19.702;2022-10-16T19:17:01;13.10;99.90
24017;DHT22;12222;50.090;19.702;2022-10-16T19:22:08;13.00;99.90
24017;DHT22;12222;50.090;19.702;2022-10-16T19:27:16;13.00;99.90
24017;DHT22;12222;50.090;19.702;2022-10-16T19:32:18;13.20;99.90
24017;DHT22;12222;50.090;19.702;2022-10-16T19:37:22;13.40;99.90
24017;DHT22;12222;50.090;19.702;2022-10-16T19:42:29;13.40;99.90
24017;DHT22;12222;50.090;19.702;2022-10-16T19:47:33;13.20;99.90
24017;DHT22;12222;50.090;19.702;2022-10-16T19:52:44;13.10;99.90
24017;DHT22;12222;50.090;19.702;2022-10-16T19:58:10;13.30;99.90
24017;DHT22;12222;50.090;19.702;2022-10-16T20:03:13;13.30;99.90
24017;DHT22;12222;50.090;19.702;2022-10-16T20:08:17;13.30;99.90
24017;DHT22;12222;50.090;19.702;2022-10-16T20:13:20;13.40;99.90
24017;DHT22;12222;50.090;19.702;2022-10-16T20:18:23;13.30;99.90
24017;DHT22;12222;50.090;19.702;2022-10-16T20:23:27;13.10;99.90
24017;DHT22;12222;50.090;19.702;2022-10-16T20:28:29;13.00;99.90
24017;DHT22;12222;50.090;19.702;2022-10-16T20:33:33;13.10;99.90
24017;DHT22;12222;50.090;19.702;2022-10-16T20:38:36;13.10;99.90
24017;DHT22;12222;50.090;19.702;2022-10-16T20:43:43;13.10;99.90
24017;DHT22;12222;50.090;19.702;2022-10-16T20:48:49;13.10;99.90
24017;DHT22;12222;50.090;19.702;2022-10-16T20:53:58;12.90;99.90
24017;DHT22;12222;50.090;19.702;2022-10-16T20:59:00;12.70;99.90
24017;DHT22;12222;50.090;19.702;2022-10-16T21:04:05;12.70;99.90
24017;DHT22;12222;50.090;19.702;2022-10-16T21:09:19;12.60;99.90
24017;DHT22;12222;50.090;19.702;2022-10-16T21:14:54;12.60;99.90
24017;DHT22;12222;50.090;19.702;2022-10-16T21:20:16;12.00;99.90
24017;DHT22;12222;50.090;19.702;2022-10-16T21:25:35;11.50;99.90
24017;DHT22;12222;50.090;19.702;2022-10-16T21:30:44;11.30;99.90
24017;DHT22;12222;50.090;19.702;2022-10-16T21:35:53;11.10;99.90
24017;DHT22;12222;50.090;19.702;2022-10-16T21:41:11;11.00;99.90
24017;DHT22;12222;50.090;19.702;2022-10-16T21:46:16;11.30;99.90
24017;DHT22;12222;50.090;19.702;2022-10-16T21:51:18;11.10;99.90
24017;DHT22;12222;50.090;19.702;2022-10-16T21:56:21;10.90;99.90
24017;DHT22;12222;50.090;19.702;2022-10-16T22:01:24;10.70;99.90
24017;DHT22;12222;50.090;19.702;2022-10-16T22:06:27;10.80;99.90
24017;DHT22;12222;50.090;19.702;2022-10-16T22:11:35;10.90;99.90
24017;DHT22;12222;50.090;19.702;2022-10-16T22:16:38;10.80;99.90
24017;DHT22;12222;50.090;19.702;2022-10-16T22:21:41;10.70;99.90
24017;DHT22;12222;50.090;19.702;2022-10-16T22:26:43;10.80;99.90
24017;DHT22;12222;50.090;19.702;2022-10-16T22:31:45;10.90;99.90
24017;DHT22;12222;50.090;19.702;2022-10-16T22:36:50;10.70;99.90
24017;DHT22;12222;50.090;19.702;2022-10-16T22:41:53;10.70;99.90
24017;DHT22;12222;50.090;19.702;2022-10-16T22:46:55;10.80;99.90
24017;DHT22;12222;50.090;19.702;2022-10-16T22:51:57;10.60;99.90
24017;DHT22;12222;50.090;19.702;2022-10-16T22:56:59;10.70;99.90
24017;DHT22;12222;50.090;19.702;2022-10-16T23:02:01;10.70;99.90
24017;DHT22;12222;50.090;19.702;2022-10-16T23:07:03;10.80;99.90
24017;DHT22;12222;50.090;19.702;2022-10-16T23:12:05;10.50;99.90
24017;DHT22;12222;50.090;19.702;2022-10-16T23:17:06;10.30;99.90
24017;DHT22;12222;50.090;19.702;2022-10-16T23:22:08;10.40;99.90
24017;DHT22;12222;50.090;19.702;2022-10-16T23:27:10;10.30;99.90
24017;DHT22;12222;50.090;19.702;2022-10-16T23:45:08;10.00;99.90
24017;DHT22;12222;50.090;19.702;2022-10-16T23:50:30;10.10;99.90
24017;DHT22;12222;50.090;19.702;2022-10-16T23:55:52;10.00;99.90
